WARR/SUB METAR and TAF weather

Enter ICAO airport designator
Station Type Date Time Source
WARR METAR 2019/02/20 07:00 UTC NOAA

WARR 200700Z 36006KT 310V080 9999 SCT020CB 31/25 Q1011 NOSIG


Station Type Date Time Source
WARR Decoded METAR 2019/02/20 07:00 UTC NOAA

Station name not available
Feb 20, 2019 - 02:00 AM EST / 2019.02.20 0700 UTC
Wind: from the N (360 degrees) at 7 MPH (6 KT) (direction variable):0
Visibility: greater than 7 mile(s):0
Sky conditions: partly cloudy
Weather: Cumulonimbus clouds observed
Temperature: 87 F (31 C)
Heat index: 97.5 F (36.4 C):1
Dew Point: 77 F (25 C)
Relative Humidity: 70%
Pressure (altimeter): 29.85 in. Hg (1011 hPa)
ob: WARR 200700Z 36006KT 310V080 9999 SCT020CB 31/25 Q1011 NOSIG
cycle: 7

Station Type Date Time Source
WARR TAF 2019/02/20 06:09 UTC NOAA

TAF WARR 200500Z 2006/2106 08008KT 9999 FEW020CB SCT020
TEMPO 2006/2010 33010G20KT 3000 TSRA SCT018CB
BECMG 2015/2017 27005KT 5000 HZ FEW020
TEMPO 2021/2100 3000 BR
BECMG 2100/2102 09010KT 9999 NSW SCT020


Example: see airport list